PWSweather.com
Personal Weather Stations
Station Observations

ChardChardGB

Lat: 50.877408, Lon: -2.94964741

Elevation: 341

Station Type: WS3083

http://www.merriott-astro.co.uk/weather/index.htm

High Low Average
Temperature 48.4°F9.1°C 42.1°F5.6°C 44.7°F7.1°C
Dew Point 45.1°F7.3°C 37.9°F3.3°C 41.2°F5.1°C
Winds 8.0 mph 12.9 kmh Calm Calm 2.0 mph SE3.2 kmh SE
Wind Gusts 13.0 mph20.9 kmh -- 4.0 mph6.4 kmh
Humidity 91% 84% 87%
Pressure 29.32 in992.9 mb 29.07 in984.4 mb -
Precipitation 0.00 in0.0 mm - -
Hour Temp Dew Point Humidity Winds Wind Gusts Pressure Precip Precip Rate Daily Precip Total
12:00 AM 42.4°F5.8°C 39.4°F4.1°C 89% 0.9 mph NE1.4 kmh NE 1.6 mph2.6 kmh 29.32 in992.9 mb 0.00 in0.0 mm 0.00 in0.0 mm 0.00 in0.0 mm
12:10 AM 42.4°F5.8°C 39.4°F4.1°C 89% Calm Calm -- 29.32 in992.9 mb 0.00 in0.0 mm 0.00 in0.0 mm 0.00 in0.0 mm
12:20 AM 42.4°F5.8°C 39.4°F4.1°C 89% 0.1 mph NE0.2 kmh NE 0.7 mph1.1 kmh 29.32 in992.9 mb 0.00 in0.0 mm 0.00 in0.0 mm 0.00 in0.0 mm
12:30 AM 42.4°F5.8°C 39.4°F4.1°C 89% 0.2 mph NE0.3 kmh NE 0.7 mph1.1 kmh 29.31 in992.6 mb 0.00 in0.0 mm 0.00 in0.0 mm 0.00 in0.0 mm
12:40 AM 42.4°F5.8°C 39.7°F4.3°C 90% Calm Calm -- 29.32 in992.9 mb 0.00 in0.0 mm 0.00 in0.0 mm 0.00 in0.0 mm
12:50 AM 42.4°F5.8°C 39.7°F4.3°C 90% 0.4 mph NE0.6 kmh NE 0.7 mph1.1 kmh 29.31 in992.6 mb 0.00 in0.0 mm 0.00 in0.0 mm 0.00 in0.0 mm
01:00 AM 42.3°F5.7°C 39.5°F4.2°C 90% 0.6 mph SSE1.0 kmh SSE 3.1 mph5.0 kmh 29.31 in992.6 mb 0.00 in0.0 mm 0.00 in0.0 mm 0.00 in0.0 mm
01:10 AM 42.3°F5.7°C 39.5°F4.2°C 90% 0.4 mph SE0.6 kmh SE 1.6 mph2.6 kmh 29.31 in992.6 mb 0.00 in0.0 mm 0.00 in0.0 mm 0.00 in0.0 mm
01:20 AM 42.4°F5.8°C 39.4°F4.1°C 89% 0.4 mph SE0.6 kmh SE 1.6 mph2.6 kmh 29.30 in992.2 mb 0.00 in0.0 mm 0.00 in0.0 mm 0.00 in0.0 mm
01:30 AM 42.4°F5.8°C 39.4°F4.1°C 89% 0.5 mph SE0.8 kmh SE 2.2 mph3.5 kmh 29.29 in991.9 mb 0.00 in0.0 mm 0.00 in0.0 mm 0.00 in0.0 mm
01:40 AM 42.6°F5.9°C 39.3°F4.1°C 88% 0.6 mph SE1.0 kmh SE 2.2 mph3.5 kmh 29.30 in992.2 mb 0.00 in0.0 mm 0.00 in0.0 mm 0.00 in0.0 mm
01:50 AM 42.4°F5.8°C 39.1°F3.9°C 88% 0.1 mph NE0.2 kmh NE 0.7 mph1.1 kmh 29.29 in991.9 mb 0.00 in0.0 mm 0.00 in0.0 mm 0.00 in0.0 mm
02:00 AM 42.4°F5.8°C 38.9°F3.8°C 87% Calm Calm -- 29.29 in991.9 mb 0.00 in0.0 mm 0.00 in0.0 mm 0.00 in0.0 mm
02:10 AM 42.4°F5.8°C 38.9°F3.8°C 87% Calm Calm -- 29.29 in991.9 mb 0.00 in0.0 mm 0.00 in0.0 mm 0.00 in0.0 mm
02:20 AM 42.4°F5.8°C 38.9°F3.8°C 87% 0.2 mph SE0.3 kmh SE 0.7 mph1.1 kmh 29.29 in991.9 mb 0.00 in0.0 mm 0.00 in0.0 mm 0.00 in0.0 mm
02:30 AM 42.4°F5.8°C 38.6°F3.7°C 86% 0.1 mph S0.2 kmh S 0.7 mph1.1 kmh 29.28 in991.5 mb 0.00 in0.0 mm 0.00 in0.0 mm 0.00 in0.0 mm
02:40 AM 42.4°F5.8°C 38.6°F3.7°C 86% 0.4 mph SE0.6 kmh SE 1.6 mph2.6 kmh 29.29 in991.9 mb 0.00 in0.0 mm 0.00 in0.0 mm 0.00 in0.0 mm
02:50 AM 42.4°F5.8°C 38.3°F3.5°C 85% 0.8 mph S1.3 kmh S 1.6 mph2.6 kmh 29.28 in991.5 mb 0.00 in0.0 mm 0.00 in0.0 mm 0.00 in0.0 mm
03:00 AM 42.4°F5.8°C 38.3°F3.5°C 85% 0.2 mph S0.3 kmh S 0.7 mph1.1 kmh 29.27 in991.2 mb 0.00 in0.0 mm 0.00 in0.0 mm 0.00 in0.0 mm
03:10 AM 42.3°F5.7°C 38.1°F3.4°C 85% Calm Calm -- 29.27 in991.2 mb 0.00 in0.0 mm 0.00 in0.0 mm 0.00 in0.0 mm
03:20 AM 42.3°F5.7°C 38.1°F3.4°C 85% Calm Calm -- 29.26 in990.9 mb 0.00 in0.0 mm 0.00 in0.0 mm 0.00 in0.0 mm
03:30 AM 42.3°F5.7°C 38.1°F3.4°C 85% Calm Calm -- 29.27 in991.2 mb 0.00 in0.0 mm 0.00 in0.0 mm 0.00 in0.0 mm
03:40 AM 42.3°F5.7°C 38.1°F3.4°C 85% Calm Calm -- 29.27 in991.2 mb 0.00 in0.0 mm 0.00 in0.0 mm 0.00 in0.0 mm
03:50 AM 42.3°F5.7°C 38.1°F3.4°C 85% 0.3 mph ENE0.5 kmh ENE 1.6 mph2.6 kmh 29.26 in990.9 mb 0.00 in0.0 mm 0.00 in0.0 mm 0.00 in0.0 mm
04:00 AM 42.3°F5.7°C 38.1°F3.4°C 85% Calm Calm -- 29.26 in990.9 mb 0.00 in0.0 mm 0.00 in0.0 mm 0.00 in0.0 mm
04:10 AM 42.1°F5.6°C 37.9°F3.3°C 85% Calm Calm -- 29.25 in990.5 mb 0.00 in0.0 mm 0.00 in0.0 mm 0.00 in0.0 mm
04:20 AM 42.1°F5.6°C 37.9°F3.3°C 85% Calm Calm -- 29.25 in990.5 mb 0.00 in0.0 mm 0.00 in0.0 mm 0.00 in0.0 mm
04:30 AM 42.1°F5.6°C 37.9°F3.3°C 85% Calm Calm -- 29.25 in990.5 mb 0.00 in0.0 mm 0.00 in0.0 mm 0.00 in0.0 mm
04:40 AM 42.3°F5.7°C 38.1°F3.4°C 85% 0.3 mph E0.5 kmh E 0.7 mph1.1 kmh 29.25 in990.5 mb 0.00 in0.0 mm 0.00 in0.0 mm 0.00 in0.0 mm
04:50 AM 42.3°F5.7°C 38.1°F3.4°C 85% Calm Calm -- 29.25 in990.5 mb 0.00 in0.0 mm 0.00 in0.0 mm 0.00 in0.0 mm
05:00 AM 42.1°F5.6°C 37.9°F3.3°C 85% Calm Calm -- 29.25 in990.5 mb 0.00 in0.0 mm 0.00 in0.0 mm 0.00 in0.0 mm
05:10 AM 42.1°F5.6°C 37.9°F3.3°C 85% Calm Calm -- 29.24 in990.2 mb 0.00 in0.0 mm 0.00 in0.0 mm 0.00 in0.0 mm
05:20 AM 42.1°F5.6°C 37.9°F3.3°C 85% 0.5 mph NE0.8 kmh NE 1.6 mph2.6 kmh 29.24 in990.2 mb 0.00 in0.0 mm 0.00 in0.0 mm 0.00 in0.0 mm
05:30 AM 42.1°F5.6°C 37.9°F3.3°C 85% 0.2 mph N0.3 kmh N 0.7 mph1.1 kmh 29.24 in990.2 mb 0.00 in0.0 mm 0.00 in0.0 mm 0.00 in0.0 mm
05:40 AM 42.1°F5.6°C 37.9°F3.3°C 85% Calm Calm -- 29.24 in990.2 mb 0.00 in0.0 mm 0.00 in0.0 mm 0.00 in0.0 mm
05:50 AM 42.1°F5.6°C 38.2°F3.4°C 86% 0.4 mph N0.6 kmh N 0.7 mph1.1 kmh 29.23 in989.8 mb 0.00 in0.0 mm 0.00 in0.0 mm 0.00 in0.0 mm
06:00 AM 42.1°F5.6°C 38.2°F3.4°C 86% 0.2 mph N0.3 kmh N 0.7 mph1.1 kmh 29.24 in990.2 mb 0.00 in0.0 mm 0.00 in0.0 mm 0.00 in0.0 mm
06:10 AM 42.1°F5.6°C 38.2°F3.4°C 86% Calm Calm 0.7 mph1.1 kmh 29.24 in990.2 mb 0.00 in0.0 mm 0.00 in0.0 mm 0.00 in0.0 mm
06:20 AM 42.1°F5.6°C 38.2°F3.4°C 86% 0.2 mph S0.3 kmh S 0.7 mph1.1 kmh 29.24 in990.2 mb 0.00 in0.0 mm 0.00 in0.0 mm 0.00 in0.0 mm
06:30 AM 42.3°F5.7°C 38.4°F3.6°C 86% 0.6 mph S1.0 kmh S 1.6 mph2.6 kmh 29.24 in990.2 mb 0.00 in0.0 mm 0.00 in0.0 mm 0.00 in0.0 mm
06:40 AM 42.3°F5.7°C 38.4°F3.6°C 86% 0.2 mph SE0.3 kmh SE 0.7 mph1.1 kmh 29.23 in989.8 mb 0.00 in0.0 mm 0.00 in0.0 mm 0.00 in0.0 mm
06:50 AM 42.4°F5.8°C 38.6°F3.7°C 86% 0.2 mph NW0.3 kmh NW 1.6 mph2.6 kmh 29.23 in989.8 mb 0.00 in0.0 mm 0.00 in0.0 mm 0.00 in0.0 mm
07:00 AM 42.4°F5.8°C 38.3°F3.5°C 85% Calm Calm -- 29.24 in990.2 mb 0.00 in0.0 mm 0.00 in0.0 mm 0.00 in0.0 mm
07:10 AM 42.4°F5.8°C 38.3°F3.5°C 85% Calm Calm -- 29.23 in989.8 mb 0.00 in0.0 mm 0.00 in0.0 mm 0.00 in0.0 mm
07:20 AM 42.4°F5.8°C 38.3°F3.5°C 85% 0.1 mph NW0.2 kmh NW 0.7 mph1.1 kmh 29.23 in989.8 mb 0.00 in0.0 mm 0.00 in0.0 mm 0.00 in0.0 mm
07:30 AM 42.6°F5.9°C 38.4°F3.6°C 85% Calm Calm -- 29.23 in989.8 mb 0.00 in0.0 mm 0.00 in0.0 mm 0.00 in0.0 mm
07:40 AM 42.6°F5.9°C 38.4°F3.6°C 85% 0.5 mph E0.8 kmh E 1.6 mph2.6 kmh 29.23 in989.8 mb 0.00 in0.0 mm 0.00 in0.0 mm 0.00 in0.0 mm
07:50 AM 42.8°F6.0°C 38.6°F3.7°C 85% 0.3 mph E0.5 kmh E 1.6 mph2.6 kmh 29.23 in989.8 mb 0.00 in0.0 mm 0.00 in0.0 mm 0.00 in0.0 mm
08:00 AM 42.8°F6.0°C 38.6°F3.7°C 85% 0.2 mph ENE0.3 kmh ENE 1.6 mph2.6 kmh 29.24 in990.2 mb 0.00 in0.0 mm 0.00 in0.0 mm 0.00 in0.0 mm
08:10 AM 43.0°F6.1°C 39.1°F3.9°C 86% 0.9 mph ESE1.4 kmh ESE 2.2 mph3.5 kmh 29.24 in990.2 mb 0.00 in0.0 mm 0.00 in0.0 mm 0.00 in0.0 mm
08:20 AM 43.0°F6.1°C 39.1°F3.9°C 86% 0.4 mph SE0.6 kmh SE 1.6 mph2.6 kmh 29.24 in990.2 mb 0.00 in0.0 mm 0.00 in0.0 mm 0.00 in0.0 mm
08:30 AM 43.0°F6.1°C 39.1°F3.9°C 86% 0.5 mph ESE0.8 kmh ESE 0.7 mph1.1 kmh 29.23 in989.8 mb 0.00 in0.0 mm 0.00 in0.0 mm 0.00 in0.0 mm
08:40 AM 43.0°F6.1°C 39.1°F3.9°C 86% 0.1 mph NE0.2 kmh NE 0.7 mph1.1 kmh 29.23 in989.8 mb 0.00 in0.0 mm 0.00 in0.0 mm 0.00 in0.0 mm
08:50 AM 43.2°F6.2°C 39.3°F4.1°C 86% 0.2 mph NW0.3 kmh NW 0.7 mph1.1 kmh 29.23 in989.8 mb 0.00 in0.0 mm 0.00 in0.0 mm 0.00 in0.0 mm
09:00 AM 43.3°F6.3°C 39.7°F4.3°C 87% 0.6 mph E1.0 kmh E 3.8 mph6.1 kmh 29.23 in989.8 mb 0.00 in0.0 mm 0.00 in0.0 mm 0.00 in0.0 mm
09:10 AM 43.9°F6.6°C 40.6°F4.8°C 88% 1.7 mph ESE2.7 kmh ESE 2.2 mph3.5 kmh 29.23 in989.8 mb 0.00 in0.0 mm 0.00 in0.0 mm 0.00 in0.0 mm
09:20 AM 44.1°F6.7°C 40.7°F4.8°C 88% 2.2 mph SE3.5 kmh SE 3.1 mph5.0 kmh 29.23 in989.8 mb 0.00 in0.0 mm 0.00 in0.0 mm 0.00 in0.0 mm
09:30 AM 44.1°F6.7°C 41.0°F5.0°C 89% 2.9 mph ESE4.7 kmh ESE 3.8 mph6.1 kmh 29.23 in989.8 mb 0.00 in0.0 mm 0.00 in0.0 mm 0.00 in0.0 mm
09:40 AM 44.2°F6.8°C 41.2°F5.1°C 89% 2.2 mph SE3.5 kmh SE 3.8 mph6.1 kmh 29.23 in989.8 mb 0.00 in0.0 mm 0.00 in0.0 mm 0.00 in0.0 mm
09:50 AM 44.4°F6.9°C 41.7°F5.4°C 90% 2.2 mph SE3.5 kmh SE 3.8 mph6.1 kmh 29.23 in989.8 mb 0.00 in0.0 mm 0.00 in0.0 mm 0.00 in0.0 mm
10:00 AM 44.4°F6.9°C 41.7°F5.4°C 90% 1.5 mph ESE2.4 kmh ESE 3.8 mph6.1 kmh 29.23 in989.8 mb 0.00 in0.0 mm 0.00 in0.0 mm 0.00 in0.0 mm
10:10 AM 44.6°F7.0°C 41.9°F5.5°C 90% 3.3 mph S5.3 kmh S 4.5 mph7.2 kmh 29.23 in989.8 mb 0.00 in0.0 mm 0.00 in0.0 mm 0.00 in0.0 mm
10:20 AM 44.6°F7.0°C 41.9°F5.5°C 90% 1.6 mph E2.6 kmh E 3.1 mph5.0 kmh 29.23 in989.8 mb 0.00 in0.0 mm 0.00 in0.0 mm 0.00 in0.0 mm
10:30 AM 44.8°F7.1°C 42.0°F5.6°C 90% 2.5 mph S4.0 kmh S 5.4 mph8.7 kmh 29.22 in989.5 mb 0.00 in0.0 mm 0.00 in0.0 mm 0.00 in0.0 mm
10:40 AM 44.8°F7.1°C 42.0°F5.6°C 90% 1.8 mph S2.9 kmh S 3.8 mph6.1 kmh 29.22 in989.5 mb 0.00 in0.0 mm 0.00 in0.0 mm 0.00 in0.0 mm
10:50 AM 44.8°F7.1°C 42.0°F5.6°C 90% 2.6 mph S4.2 kmh S 3.8 mph6.1 kmh 29.22 in989.5 mb 0.00 in0.0 mm 0.00 in0.0 mm 0.00 in0.0 mm
11:00 AM 45.0°F7.2°C 42.2°F5.7°C 90% 3.2 mph S5.1 kmh S 5.4 mph8.7 kmh 29.22 in989.5 mb 0.00 in0.0 mm 0.00 in0.0 mm 0.00 in0.0 mm
11:10 AM 45.0°F7.2°C 42.2°F5.7°C 90% 2.7 mph SSE4.3 kmh SSE 5.4 mph8.7 kmh 29.22 in989.5 mb 0.00 in0.0 mm 0.00 in0.0 mm 0.00 in0.0 mm
11:20 AM 45.1°F7.3°C 42.7°F5.9°C 91% 2.0 mph S3.2 kmh S 4.5 mph7.2 kmh 29.22 in989.5 mb 0.00 in0.0 mm 0.00 in0.0 mm 0.00 in0.0 mm
11:30 AM 45.1°F7.3°C 42.7°F5.9°C 91% 1.4 mph ESE2.3 kmh ESE 2.2 mph3.5 kmh 29.22 in989.5 mb 0.00 in0.0 mm 0.00 in0.0 mm 0.00 in0.0 mm
11:40 AM 45.3°F7.4°C 42.9°F6.1°C 91% 1.5 mph ENE2.4 kmh ENE 3.1 mph5.0 kmh 29.21 in989.2 mb 0.00 in0.0 mm 0.00 in0.0 mm 0.00 in0.0 mm
11:50 AM 45.5°F7.5°C 41.6°F5.3°C 86% 1.0 mph WNW1.6 kmh WNW 3.1 mph5.0 kmh 29.21 in989.2 mb 0.00 in0.0 mm 0.00 in0.0 mm 0.00 in0.0 mm
12:00 PM 45.5°F7.5°C 41.6°F5.3°C 86% 2.9 mph S4.7 kmh S 6.0 mph9.7 kmh 29.20 in988.8 mb 0.00 in0.0 mm 0.00 in0.0 mm 0.00 in0.0 mm
12:10 PM 45.7°F7.6°C 41.7°F5.4°C 86% 4.9 mph S7.9 kmh S 9.2 mph14.8 kmh 29.21 in989.2 mb 0.00 in0.0 mm 0.00 in0.0 mm 0.00 in0.0 mm
12:20 PM 45.7°F7.6°C 41.7°F5.4°C 86% 4.8 mph SSE7.7 kmh SSE 9.2 mph14.8 kmh 29.20 in988.8 mb 0.00 in0.0 mm 0.00 in0.0 mm 0.00 in0.0 mm
12:30 PM 45.7°F7.6°C 41.7°F5.4°C 86% 4.1 mph S6.6 kmh S 6.9 mph11.1 kmh 29.19 in988.5 mb 0.00 in0.0 mm 0.00 in0.0 mm 0.00 in0.0 mm
12:40 PM 45.9°F7.7°C 41.9°F5.5°C 86% 2.5 mph SE4.0 kmh SE 3.8 mph6.1 kmh 29.19 in988.5 mb 0.00 in0.0 mm 0.00 in0.0 mm 0.00 in0.0 mm
12:50 PM 45.9°F7.7°C 42.2°F5.7°C 87% 2.1 mph SSW3.4 kmh SSW 4.5 mph7.2 kmh 29.18 in988.1 mb 0.00 in0.0 mm 0.00 in0.0 mm 0.00 in0.0 mm
01:00 PM 45.9°F7.7°C 42.2°F5.7°C 87% 3.1 mph SE5.0 kmh SE 4.5 mph7.2 kmh 29.18 in988.1 mb 0.00 in0.0 mm 0.00 in0.0 mm 0.00 in0.0 mm
01:10 PM 46.0°F7.8°C 42.4°F5.8°C 87% 3.4 mph SSE5.5 kmh SSE 5.4 mph8.7 kmh 29.17 in987.8 mb 0.00 in0.0 mm 0.00 in0.0 mm 0.00 in0.0 mm
01:20 PM 46.0°F7.8°C 42.4°F5.8°C 87% 4.9 mph SE7.9 kmh SE 9.2 mph14.8 kmh 29.17 in987.8 mb 0.00 in0.0 mm 0.00 in0.0 mm 0.00 in0.0 mm
01:30 PM 46.0°F7.8°C 42.4°F5.8°C 87% 3.6 mph SSE5.8 kmh SSE 5.4 mph8.7 kmh 29.16 in987.5 mb 0.00 in0.0 mm 0.00 in0.0 mm 0.00 in0.0 mm
01:40 PM 46.0°F7.8°C 42.4°F5.8°C 87% 4.3 mph ESE6.9 kmh ESE 7.6 mph12.2 kmh 29.17 in987.8 mb 0.00 in0.0 mm 0.00 in0.0 mm 0.00 in0.0 mm
01:50 PM 46.0°F7.8°C 42.7°F5.9°C 88% 3.6 mph S5.8 kmh S 6.0 mph9.7 kmh 29.16 in987.5 mb 0.00 in0.0 mm 0.00 in0.0 mm 0.00 in0.0 mm
02:00 PM 46.0°F7.8°C 42.7°F5.9°C 88% 4.0 mph SSE6.4 kmh SSE 6.0 mph9.7 kmh 29.16 in987.5 mb 0.00 in0.0 mm 0.00 in0.0 mm 0.00 in0.0 mm
02:10 PM 46.0°F7.8°C 42.7°F5.9°C 88% 2.8 mph S4.5 kmh S 5.4 mph8.7 kmh 29.14 in986.8 mb 0.00 in0.0 mm 0.00 in0.0 mm 0.00 in0.0 mm
02:20 PM 46.0°F7.8°C 42.7°F5.9°C 88% 4.2 mph SW6.8 kmh SW 6.9 mph11.1 kmh 29.14 in986.8 mb 0.00 in0.0 mm 0.00 in0.0 mm 0.00 in0.0 mm
02:30 PM 46.0°F7.8°C 42.7°F5.9°C 88% 2.6 mph SSW4.2 kmh SSW 6.0 mph9.7 kmh 29.15 in987.1 mb 0.00 in0.0 mm 0.00 in0.0 mm 0.00 in0.0 mm
02:40 PM 46.0°F7.8°C 42.7°F5.9°C 88% 3.5 mph SW5.6 kmh SW 5.4 mph8.7 kmh 29.14 in986.8 mb 0.00 in0.0 mm 0.00 in0.0 mm 0.00 in0.0 mm
02:50 PM 46.0°F7.8°C 42.7°F5.9°C 88% 3.3 mph SSW5.3 kmh SSW 6.0 mph9.7 kmh 29.14 in986.8 mb 0.00 in0.0 mm 0.00 in0.0 mm 0.00 in0.0 mm
03:00 PM 46.0°F7.8°C 42.7°F5.9°C 88% 2.7 mph SSW4.3 kmh SSW 5.4 mph8.7 kmh 29.13 in986.5 mb 0.00 in0.0 mm 0.00 in0.0 mm 0.00 in0.0 mm
03:10 PM 46.2°F7.9°C 42.9°F6.1°C 88% 3.9 mph S6.3 kmh S 6.9 mph11.1 kmh 29.14 in986.8 mb 0.00 in0.0 mm 0.00 in0.0 mm 0.00 in0.0 mm
03:20 PM 46.2°F7.9°C 42.9°F6.1°C 88% 3.0 mph SSE4.8 kmh SSE 6.0 mph9.7 kmh 29.14 in986.8 mb 0.00 in0.0 mm 0.00 in0.0 mm 0.00 in0.0 mm
03:30 PM 46.2°F7.9°C 42.6°F5.9°C 87% 2.2 mph S3.5 kmh S 4.5 mph7.2 kmh 29.13 in986.5 mb 0.00 in0.0 mm 0.00 in0.0 mm 0.00 in0.0 mm
03:40 PM 46.2°F7.9°C 42.6°F5.9°C 87% 3.1 mph SE5.0 kmh SE 5.4 mph8.7 kmh 29.13 in986.5 mb 0.00 in0.0 mm 0.00 in0.0 mm 0.00 in0.0 mm
03:50 PM 46.4°F8.0°C 42.7°F5.9°C 87% 3.6 mph SSW5.8 kmh SSW 6.0 mph9.7 kmh 29.13 in986.5 mb 0.00 in0.0 mm 0.00 in0.0 mm 0.00 in0.0 mm
04:00 PM 46.4°F8.0°C 42.7°F5.9°C 87% 2.5 mph S4.0 kmh S 6.0 mph9.7 kmh 29.13 in986.5 mb 0.00 in0.0 mm 0.00 in0.0 mm 0.00 in0.0 mm
04:10 PM 46.4°F8.0°C 42.7°F5.9°C 87% 2.8 mph SW4.5 kmh SW 4.5 mph7.2 kmh 29.13 in986.5 mb 0.00 in0.0 mm 0.00 in0.0 mm 0.00 in0.0 mm
04:20 PM 46.4°F8.0°C 42.7°F5.9°C 87% 3.1 mph SSE5.0 kmh SSE 3.8 mph6.1 kmh 29.13 in986.5 mb 0.00 in0.0 mm 0.00 in0.0 mm 0.00 in0.0 mm
04:30 PM 46.2°F7.9°C 42.3°F5.7°C 86% 4.8 mph SW7.7 kmh SW 6.0 mph9.7 kmh 29.13 in986.5 mb 0.00 in0.0 mm 0.00 in0.0 mm 0.00 in0.0 mm
04:40 PM 46.2°F7.9°C 42.3°F5.7°C 86% 3.3 mph SSE5.3 kmh SSE 6.0 mph9.7 kmh 29.13 in986.5 mb 0.00 in0.0 mm 0.00 in0.0 mm 0.00 in0.0 mm
04:50 PM 46.2°F7.9°C 42.3°F5.7°C 86% 3.0 mph S4.8 kmh S 5.4 mph8.7 kmh 29.13 in986.5 mb 0.00 in0.0 mm 0.00 in0.0 mm 0.00 in0.0 mm
05:00 PM 46.2°F7.9°C 42.3°F5.7°C 86% 3.7 mph S6.0 kmh S 6.9 mph11.1 kmh 29.12 in986.1 mb 0.00 in0.0 mm 0.00 in0.0 mm 0.00 in0.0 mm
05:10 PM 46.2°F7.9°C 42.3°F5.7°C 86% 3.1 mph S5.0 kmh S 7.6 mph12.2 kmh 29.13 in986.5 mb 0.00 in0.0 mm 0.00 in0.0 mm 0.00 in0.0 mm
05:20 PM 46.2°F7.9°C 42.3°F5.7°C 86% 3.6 mph SW5.8 kmh SW 7.6 mph12.2 kmh 29.13 in986.5 mb 0.00 in0.0 mm 0.00 in0.0 mm 0.00 in0.0 mm
05:30 PM 46.0°F7.8°C 42.4°F5.8°C 87% 4.0 mph S6.4 kmh S 10.7 mph17.2 kmh 29.13 in986.5 mb 0.00 in0.0 mm 0.00 in0.0 mm 0.00 in0.0 mm
05:40 PM 46.0°F7.8°C 42.4°F5.8°C 87% 3.5 mph ESE5.6 kmh ESE 5.4 mph8.7 kmh 29.13 in986.5 mb 0.00 in0.0 mm 0.00 in0.0 mm 0.00 in0.0 mm
05:50 PM 45.9°F7.7°C 42.2°F5.7°C 87% 2.6 mph SE4.2 kmh SE 4.5 mph7.2 kmh 29.12 in986.1 mb 0.00 in0.0 mm 0.00 in0.0 mm 0.00 in0.0 mm
06:00 PM 45.9°F7.7°C 42.2°F5.7°C 87% 3.3 mph SW5.3 kmh SW 7.6 mph12.2 kmh 29.13 in986.5 mb 0.00 in0.0 mm 0.00 in0.0 mm 0.00 in0.0 mm
06:10 PM 45.9°F7.7°C 42.2°F5.7°C 87% 3.4 mph S5.5 kmh S 6.0 mph9.7 kmh 29.12 in986.1 mb 0.00 in0.0 mm 0.00 in0.0 mm 0.00 in0.0 mm
06:20 PM 45.9°F7.7°C 42.2°F5.7°C 87% 3.7 mph S6.0 kmh S 6.9 mph11.1 kmh 29.12 in986.1 mb 0.00 in0.0 mm 0.00 in0.0 mm 0.00 in0.0 mm
06:30 PM 45.9°F7.7°C 42.2°F5.7°C 87% 2.7 mph S4.3 kmh S 6.0 mph9.7 kmh 29.12 in986.1 mb 0.00 in0.0 mm 0.00 in0.0 mm 0.00 in0.0 mm
06:40 PM 45.9°F7.7°C 42.5°F5.8°C 88% 5.1 mph S8.2 kmh S 9.2 mph14.8 kmh 29.12 in986.1 mb 0.00 in0.0 mm 0.00 in0.0 mm 0.00 in0.0 mm
06:50 PM 45.9°F7.7°C 42.5°F5.8°C 88% 4.8 mph S7.7 kmh S 6.9 mph11.1 kmh 29.12 in986.1 mb 0.00 in0.0 mm 0.00 in0.0 mm 0.00 in0.0 mm
07:00 PM 45.9°F7.7°C 42.5°F5.8°C 88% 4.1 mph SSW6.6 kmh SSW 6.0 mph9.7 kmh 29.12 in986.1 mb 0.00 in0.0 mm 0.00 in0.0 mm 0.00 in0.0 mm
07:10 PM 46.0°F7.8°C 42.7°F5.9°C 88% 7.7 mph S12.4 kmh S 13.0 mph20.9 kmh 29.12 in986.1 mb 0.00 in0.0 mm 0.00 in0.0 mm 0.00 in0.0 mm
07:20 PM 46.0°F7.8°C 43.0°F6.1°C 89% 6.3 mph S10.1 kmh S 8.3 mph13.4 kmh 29.11 in985.8 mb 0.00 in0.0 mm 0.00 in0.0 mm 0.00 in0.0 mm
07:30 PM 46.0°F7.8°C 43.0°F6.1°C 89% 3.7 mph WSW6.0 kmh WSW 6.0 mph9.7 kmh 29.13 in986.5 mb 0.00 in0.0 mm 0.00 in0.0 mm 0.00 in0.0 mm
07:40 PM 46.0°F7.8°C 43.0°F6.1°C 89% 3.8 mph S6.1 kmh S 6.9 mph11.1 kmh 29.11 in985.8 mb 0.00 in0.0 mm 0.00 in0.0 mm 0.00 in0.0 mm
07:50 PM 46.2°F7.9°C 43.2°F6.2°C 89% 3.7 mph S6.0 kmh S 5.4 mph8.7 kmh 29.11 in985.8 mb 0.00 in0.0 mm 0.00 in0.0 mm 0.00 in0.0 mm
08:00 PM 46.2°F7.9°C 43.2°F6.2°C 89% 4.2 mph S6.8 kmh S 6.9 mph11.1 kmh 29.12 in986.1 mb 0.00 in0.0 mm 0.00 in0.0 mm 0.00 in0.0 mm
08:10 PM 46.2°F7.9°C 43.2°F6.2°C 89% 2.8 mph SSW4.5 kmh SSW 4.5 mph7.2 kmh 29.12 in986.1 mb 0.00 in0.0 mm 0.00 in0.0 mm 0.00 in0.0 mm
08:20 PM 46.2°F7.9°C 43.2°F6.2°C 89% 2.4 mph S3.9 kmh S 4.5 mph7.2 kmh 29.10 in985.4 mb 0.00 in0.0 mm 0.00 in0.0 mm 0.00 in0.0 mm
08:30 PM 46.2°F7.9°C 43.5°F6.4°C 90% 1.6 mph SSW2.6 kmh SSW 3.1 mph5.0 kmh 29.11 in985.8 mb 0.00 in0.0 mm 0.00 in0.0 mm 0.00 in0.0 mm
08:40 PM 46.4°F8.0°C 43.6°F6.4°C 90% 2.5 mph SSE4.0 kmh SSE 4.5 mph7.2 kmh 29.10 in985.4 mb 0.00 in0.0 mm 0.00 in0.0 mm 0.00 in0.0 mm
08:50 PM 46.6°F8.1°C 43.8°F6.6°C 90% 3.8 mph SSW6.1 kmh SSW 6.0 mph9.7 kmh 29.10 in985.4 mb 0.00 in0.0 mm 0.00 in0.0 mm 0.00 in0.0 mm
09:00 PM 46.6°F8.1°C 43.8°F6.6°C 90% 2.4 mph S3.9 kmh S 3.8 mph6.1 kmh 29.10 in985.4 mb 0.00 in0.0 mm 0.00 in0.0 mm 0.00 in0.0 mm
09:10 PM 46.8°F8.2°C 44.0°F6.7°C 90% 2.8 mph SSW4.5 kmh SSW 4.5 mph7.2 kmh 29.10 in985.4 mb 0.00 in0.0 mm 0.00 in0.0 mm 0.00 in0.0 mm
09:20 PM 46.9°F8.3°C 44.2°F6.8°C 90% 3.1 mph S5.0 kmh S 4.5 mph7.2 kmh 29.09 in985.1 mb 0.00 in0.0 mm 0.00 in0.0 mm 0.00 in0.0 mm
09:30 PM 47.1°F8.4°C 44.3°F6.8°C 90% 3.3 mph SW5.3 kmh SW 6.9 mph11.1 kmh 29.09 in985.1 mb 0.00 in0.0 mm 0.00 in0.0 mm 0.00 in0.0 mm
09:40 PM 47.3°F8.5°C 44.5°F6.9°C 90% 3.0 mph SSE4.8 kmh SSE 3.8 mph6.1 kmh 29.09 in985.1 mb 0.00 in0.0 mm 0.00 in0.0 mm 0.00 in0.0 mm
09:50 PM 47.3°F8.5°C 44.5°F6.9°C 90% 3.9 mph SSW6.3 kmh SSW 5.4 mph8.7 kmh 29.09 in985.1 mb 0.00 in0.0 mm 0.00 in0.0 mm 0.00 in0.0 mm
10:00 PM 47.5°F8.6°C 44.7°F7.1°C 90% 5.6 mph S9.0 kmh S 8.3 mph13.4 kmh 29.08 in984.8 mb 0.00 in0.0 mm 0.00 in0.0 mm 0.00 in0.0 mm
10:10 PM 47.7°F8.7°C 44.9°F7.2°C 90% 5.2 mph S8.4 kmh S 8.3 mph13.4 kmh 29.08 in984.8 mb 0.00 in0.0 mm 0.00 in0.0 mm 0.00 in0.0 mm
10:20 PM 47.8°F8.8°C 45.1°F7.3°C 90% 5.6 mph SSW9.0 kmh SSW 8.3 mph13.4 kmh 29.08 in984.8 mb 0.00 in0.0 mm 0.00 in0.0 mm 0.00 in0.0 mm
10:30 PM 47.8°F8.8°C 44.8°F7.1°C 89% 5.1 mph SSW8.2 kmh SSW 8.3 mph13.4 kmh 29.08 in984.8 mb 0.00 in0.0 mm 0.00 in0.0 mm 0.00 in0.0 mm
10:40 PM 48.0°F8.9°C 44.6°F7.0°C 88% 5.8 mph SSW9.3 kmh SSW 8.3 mph13.4 kmh 29.07 in984.4 mb 0.00 in0.0 mm 0.00 in0.0 mm 0.00 in0.0 mm
10:50 PM 48.2°F9.0°C 44.5°F6.9°C 87% 7.0 mph S11.3 kmh S 8.3 mph13.4 kmh 29.07 in984.4 mb 0.00 in0.0 mm 0.00 in0.0 mm 0.00 in0.0 mm
11:00 PM 48.2°F9.0°C 44.5°F6.9°C 87% 6.9 mph SSW11.1 kmh SSW 11.4 mph18.3 kmh 29.07 in984.4 mb 0.00 in0.0 mm 0.00 in0.0 mm 0.00 in0.0 mm
11:10 PM 48.4°F9.1°C 44.4°F6.9°C 86% 8.0 mph SSW12.9 kmh SSW 9.8 mph15.8 kmh 29.07 in984.4 mb 0.00 in0.0 mm 0.00 in0.0 mm 0.00 in0.0 mm
11:20 PM 48.4°F9.1°C 44.1°F6.7°C 85% 6.2 mph SSW10.0 kmh SSW 7.6 mph12.2 kmh 29.07 in984.4 mb 0.00 in0.0 mm 0.00 in0.0 mm 0.00 in0.0 mm
11:30 PM 48.4°F9.1°C 44.1°F6.7°C 85% 7.2 mph SW11.6 kmh SW 9.2 mph14.8 kmh 29.07 in984.4 mb 0.00 in0.0 mm 0.00 in0.0 mm 0.00 in0.0 mm
11:40 PM 48.4°F9.1°C 43.8°F6.6°C 84% 5.1 mph SW8.2 kmh SW 7.6 mph12.2 kmh 29.08 in984.8 mb 0.00 in0.0 mm 0.00 in0.0 mm 0.00 in0.0 mm
11:50 PM 48.0°F8.9°C 43.4°F6.3°C 84% 4.5 mph SW7.2 kmh SW 8.3 mph13.4 kmh 29.07 in984.4 mb 0.00 in0.0 mm 0.00 in0.0 mm 0.00 in0.0 mm